Time;durP1;ratioP1;P1;durP2;ratioP2;P2;SDS_P1;SDS_P2;PMS_P1;PMS_P2;Temp;Humidity;BMP_temperature;BMP_pressure;BME280_temperature;BME280_humidity;BME280_pressure;Samples;Min_cycle;Max_cycle;Signal;HPM_P1;HPM_P2
2023/09/19 00:01:08;;;;;;;8.43;2.20;;;15.90;99.90;;;;;;4976010;28;20206;-81
2023/09/19 00:03:37;;;;;;;8.40;2.20;;;15.90;99.90;;;;;;4977705;28;20221;-81
2023/09/19 00:06:03;;;;;;;9.47;2.83;;;15.80;99.90;;;;;;4977576;28;20183;-82
2023/09/19 00:08:29;;;;;;;9.50;2.20;;;15.80;99.90;;;;;;4978731;28;20607;-81
2023/09/19 00:10:54;;;;;;;10.37;2.60;;;15.70;99.90;;;;;;4980971;28;20211;-81
2023/09/19 00:13:20;;;;;;;7.10;2.27;;;15.70;99.90;;;;;;4981053;28;20190;-81
2023/09/19 00:15:50;;;;;;;9.03;2.13;;;15.60;99.90;;;;;;4980646;28;20265;-81
2023/09/19 00:18:18;;;;;;;12.33;2.80;;;15.70;99.90;;;;;;4980806;28;20204;-81
2023/09/19 00:20:47;;;;;;;9.63;2.03;;;15.60;99.90;;;;;;4979742;28;20681;-81
2023/09/19 00:23:13;;;;;;;7.40;2.00;;;15.60;99.90;;;;;;4981272;28;20221;-81
2023/09/19 00:25:40;;;;;;;12.60;2.50;;;15.60;99.90;;;;;;4980170;28;20197;-82
2023/09/19 00:28:07;;;;;;;8.83;2.57;;;15.50;99.90;;;;;;4981035;28;20166;-81
2023/09/19 00:30:33;;;;;;;9.90;2.33;;;15.60;99.90;;;;;;4980356;28;20526;-81
2023/09/19 00:33:00;;;;;;;11.73;2.60;;;15.50;99.90;;;;;;4979972;28;20202;-81
2023/09/19 00:35:27;;;;;;;9.27;2.20;;;15.40;99.90;;;;;;4978893;28;20190;-81
2023/09/19 00:37:53;;;;;;;7.13;2.20;;;15.40;99.90;;;;;;4980135;28;20665;-81
2023/09/19 00:40:19;;;;;;;11.03;2.50;;;15.50;99.90;;;;;;4981390;28;20562;-81
2023/09/19 00:42:46;;;;;;;15.47;2.70;;;15.50;99.90;;;;;;4980022;28;20302;-81
2023/09/19 00:45:13;;;;;;;5.90;2.50;;;15.40;99.90;;;;;;4982613;28;20183;-81
2023/09/19 00:47:45;;;;;;;9.87;2.03;;;15.40;99.90;;;;;;4982522;28;20178;-81
2023/09/19 00:50:14;;;;;;;10.97;3.07;;;15.40;99.90;;;;;;4981527;28;20166;-81
2023/09/19 00:52:41;;;;;;;9.93;2.53;;;15.40;99.90;;;;;;4980972;28;20218;-82
2023/09/19 00:55:09;;;;;;;10.17;2.60;;;15.40;99.90;;;;;;4981409;28;20175;-82
2023/09/19 00:57:36;;;;;;;9.33;2.33;;;15.30;99.90;;;;;;4981141;28;20229;-81
2023/09/19 01:00:07;;;;;;;14.10;2.50;;;15.30;99.90;;;;;;4979802;28;20645;-80
2023/09/19 01:02:34;;;;;;;13.77;2.47;;;15.30;99.90;;;;;;4979846;28;20202;-82
2023/09/19 01:05:01;;;;;;;9.67;2.20;;;15.10;99.90;;;;;;4980112;28;20182;-81
2023/09/19 01:07:30;;;;;;;15.60;2.77;;;15.30;99.90;;;;;;4980704;28;20669;-82
2023/09/19 01:09:58;;;;;;;11.33;2.50;;;15.30;99.90;;;;;;4982166;28;20181;-81
2023/09/19 01:12:49;;;;;;;7.80;2.03;;;15.20;99.90;;;;;;4979342;28;20551;-81
2023/09/19 01:15:26;;;;;;;12.93;2.97;;;15.30;99.90;;;;;;4979029;28;20294;-81
2023/09/19 01:18:02;;;;;;;9.83;2.53;;;15.30;99.90;;;;;;4978387;28;20193;-81
2023/09/19 01:20:50;;;;;;;14.40;2.53;;;15.20;99.90;;;;;;4980181;28;20162;-81
2023/09/19 01:23:34;;;;;;;15.27;2.50;;;15.20;99.90;;;;;;4980698;28;20662;-81
2023/09/19 01:26:29;;;;;;;10.73;2.53;;;15.30;99.90;;;;;;4979199;28;20181;-81
2023/09/19 01:29:29;;;;;;;11.17;2.23;;;15.20;99.90;;;;;;4980834;28;20163;-81
2023/09/19 01:31:57;;;;;;;11.93;2.80;;;15.20;99.90;;;;;;4979978;28;20201;-81
2023/09/19 01:34:23;;;;;;;16.37;3.37;;;15.30;99.90;;;;;;4980634;28;20253;-81
2023/09/19 01:36:48;;;;;;;9.80;2.20;;;15.20;99.90;;;;;;4978866;28;20248;-81
2023/09/19 01:39:15;;;;;;;10.33;2.63;;;15.10;99.90;;;;;;4980054;28;20186;-81
2023/09/19 01:41:54;;;;;;;8.00;1.90;;;15.10;99.90;;;;;;4978500;28;20293;-81
2023/09/19 01:44:36;;;;;;;12.10;2.60;;;15.10;99.90;;;;;;4980469;28;20243;-81
2023/09/19 01:47:12;;;;;;;17.37;2.43;;;15.10;99.90;;;;;;4979107;28;20242;-81
2023/09/19 01:49:50;;;;;;;13.07;2.60;;;15.10;99.90;;;;;;4979688;28;20510;-81
2023/09/19 01:52:21;;;;;;;12.33;2.70;;;15.10;99.90;;;;;;4978471;28;20212;-81
2023/09/19 01:54:51;;;;;;;9.40;2.70;;;15.10;99.90;;;;;;4980266;28;20221;-81
2023/09/19 01:57:29;;;;;;;11.10;2.47;;;15.10;99.90;;;;;;4982961;28;20264;-81
2023/09/19 02:00:06;;;;;;;10.83;2.87;;;15.20;99.90;;;;;;4976932;28;20178;-82
2023/09/19 02:02:42;;;;;;;9.00;2.20;;;15.00;99.90;;;;;;4976672;28;20681;-81
2023/09/19 02:05:08;;;;;;;11.30;2.40;;;15.10;99.90;;;;;;4977932;28;20162;-81
2023/09/19 02:07:35;;;;;;;15.33;2.37;;;15.10;99.90;;;;;;4977537;28;20183;-81
2023/09/19 02:10:01;;;;;;;9.10;2.70;;;15.20;99.90;;;;;;4977517;28;20233;-81
2023/09/19 02:12:27;;;;;;;11.73;2.67;;;15.30;99.90;;;;;;4978514;28;20207;-80
2023/09/19 02:14:53;;;;;;;13.63;2.93;;;15.10;99.90;;;;;;4976597;28;20242;-81
2023/09/19 02:17:19;;;;;;;10.50;2.60;;;15.20;99.90;;;;;;4978093;28;20206;-80
2023/09/19 02:19:44;;;;;;;11.87;2.70;;;14.90;99.90;;;;;;4978207;28;20171;-81
2023/09/19 02:22:10;;;;;;;9.13;2.40;;;15.00;99.90;;;;;;4976633;28;20221;-81
2023/09/19 02:24:37;;;;;;;11.37;2.80;;;15.00;99.90;;;;;;4978406;28;20217;-81
2023/09/19 02:27:04;;;;;;;14.00;3.20;;;15.10;99.90;;;;;;4978315;28;20199;-81
2023/09/19 02:29:30;;;;;;;13.63;2.40;;;15.10;99.90;;;;;;4975027;28;20681;-80
2023/09/19 02:31:56;;;;;;;11.10;2.10;;;15.10;99.90;;;;;;4975935;28;20205;-81
2023/09/19 02:34:22;;;;;;;11.20;2.90;;;15.00;99.90;;;;;;4976165;28;20170;-81
2023/09/19 02:36:48;;;;;;;9.10;2.50;;;15.00;99.90;;;;;;4977079;28;20266;-80
2023/09/19 02:39:13;;;;;;;14.27;2.97;;;15.00;99.90;;;;;;4975930;28;20218;-81
2023/09/19 02:41:40;;;;;;;11.77;2.97;;;15.10;99.90;;;;;;4976889;28;20371;-81
2023/09/19 02:44:07;;;;;;;12.87;2.70;;;15.00;99.90;;;;;;4977214;28;20284;-81
2023/09/19 02:46:33;;;;;;;10.47;3.00;;;15.00;99.90;;;;;;4977291;28;20269;-80
2023/09/19 02:48:59;;;;;;;12.77;2.70;;;15.00;99.90;;;;;;4978691;28;20173;-81
2023/09/19 02:51:24;;;;;;;6.87;2.30;;;15.00;99.90;;;;;;4978169;28;20289;-81
2023/09/19 02:53:52;;;;;;;18.37;2.70;;;15.10;99.90;;;;;;4978227;28;20252;-81
2023/09/19 02:56:18;;;;;;;10.47;2.17;;;15.10;99.90;;;;;;4976799;28;20177;-80
2023/09/19 02:58:44;;;;;;;14.87;3.03;;;14.90;99.90;;;;;;4977951;28;20205;-81
2023/09/19 03:01:12;;;;;;;10.63;2.50;;;14.90;99.90;;;;;;4976991;28;20207;-81
2023/09/19 03:03:40;;;;;;;10.77;2.37;;;14.90;99.90;;;;;;4977509;28;20210;-80
2023/09/19 03:06:08;;;;;;;11.33;2.70;;;14.90;99.90;;;;;;4978943;28;20166;-81
2023/09/19 03:08:36;;;;;;;10.13;2.30;;;15.00;99.90;;;;;;4976221;28;20623;-81
2023/09/19 03:11:05;;;;;;;10.53;2.30;;;15.00;99.90;;;;;;4976219;28;20194;-80
2023/09/19 03:13:31;;;;;;;15.70;2.50;;;14.90;99.90;;;;;;4978297;28;20166;-81
2023/09/19 03:15:58;;;;;;;8.07;2.47;;;14.90;99.90;;;;;;4978813;28;20170;-81
2023/09/19 03:18:25;;;;;;;13.83;2.77;;;14.90;99.90;;;;;;4976565;28;20178;-80
2023/09/19 03:20:55;;;;;;;13.23;2.57;;;14.80;99.90;;;;;;4976831;28;20253;-80
2023/09/19 03:23:20;;;;;;;12.17;2.20;;;14.80;99.90;;;;;;4977670;28;20214;-81
2023/09/19 03:25:47;;;;;;;8.63;2.20;;;14.80;99.90;;;;;;4977037;28;20209;-81
2023/09/19 03:28:13;;;;;;;12.03;2.30;;;14.80;99.90;;;;;;4979939;28;20673;-81
2023/09/19 03:30:38;;;;;;;10.30;2.27;;;14.80;99.90;;;;;;4979393;28;20170;-80
2023/09/19 03:33:04;;;;;;;12.47;2.60;;;14.80;99.90;;;;;;4978339;28;20206;-80
2023/09/19 03:35:30;;;;;;;10.90;2.30;;;14.80;99.90;;;;;;4975766;28;20194;-81
2023/09/19 03:37:56;;;;;;;12.80;2.37;;;14.80;99.90;;;;;;4977658;28;20663;-80
2023/09/19 03:40:23;;;;;;;10.73;2.60;;;14.60;99.90;;;;;;4977299;28;20174;-80
2023/09/19 03:42:49;;;;;;;10.87;3.03;;;14.70;99.90;;;;;;4981156;28;20194;-80
2023/09/19 03:45:16;;;;;;;10.00;2.50;;;14.70;99.90;;;;;;4980404;28;20269;-80
2023/09/19 03:47:41;;;;;;;8.53;2.23;;;14.70;99.90;;;;;;4981753;28;20170;-80
2023/09/19 03:50:10;;;;;;;11.00;2.60;;;14.60;99.90;;;;;;4979785;28;20305;-80
2023/09/19 03:52:36;;;;;;;12.37;2.67;;;14.60;99.90;;;;;;4981214;28;20604;-80
2023/09/19 03:55:05;;;;;;;6.70;2.20;;;14.60;99.90;;;;;;4980971;28;20182;-80
2023/09/19 03:57:30;;;;;;;9.93;2.47;;;14.60;99.90;;;;;;4980733;28;20237;-80
2023/09/19 03:59:56;;;;;;;9.97;2.70;;;14.60;99.90;;;;;;4981234;28;20174;-80
2023/09/19 04:02:22;;;;;;;6.27;2.07;;;14.60;99.90;;;;;;4987872;28;20206;-80
2023/09/19 04:04:48;;;;;;;7.50;2.53;;;14.60;99.90;;;;;;4988527;28;20575;-80
2023/09/19 04:07:14;;;;;;;15.30;2.87;;;14.50;99.90;;;;;;4979194;28;20178;-80
2023/09/19 04:09:40;;;;;;;13.73;2.37;;;14.50;99.90;;;;;;4980004;28;20547;-80
2023/09/19 04:12:08;;;;;;;12.37;2.57;;;14.50;99.90;;;;;;4979699;28;20593;-80
2023/09/19 04:14:34;;;;;;;11.23;2.77;;;14.50;99.90;;;;;;4979978;28;20206;-80
2023/09/19 04:17:00;;;;;;;9.00;2.43;;;14.50;99.90;;;;;;4978836;28;20552;-80
2023/09/19 04:19:26;;;;;;;14.33;2.37;;;14.50;99.90;;;;;;4980851;28;20222;-80
2023/09/19 04:21:51;;;;;;;8.33;2.30;;;14.40;99.90;;;;;;4979507;28;20203;-80
2023/09/19 04:24:19;;;;;;;13.00;2.70;;;14.40;99.90;;;;;;4978907;28;20174;-81
2023/09/19 04:26:45;;;;;;;17.03;3.10;;;14.40;99.90;;;;;;4980297;28;20210;-80
2023/09/19 04:29:13;;;;;;;11.53;2.63;;;14.40;99.90;;;;;;4980159;28;20214;-81
2023/09/19 04:31:40;;;;;;;8.97;2.37;;;14.40;99.90;;;;;;4981217;28;20182;-83
2023/09/19 04:34:07;;;;;;;12.13;3.20;;;14.40;99.90;;;;;;4982065;28;20189;-82
2023/09/19 04:36:33;;;;;;;12.43;2.43;;;14.40;99.90;;;;;;4980864;28;20229;-81
2023/09/19 04:38:58;;;;;;;10.60;2.80;;;14.40;99.90;;;;;;4982828;28;20186;-82
2023/09/19 04:41:24;;;;;;;7.97;2.13;;;14.50;99.90;;;;;;4983821;28;20205;-82
2023/09/19 04:43:50;;;;;;;10.70;2.73;;;14.40;99.90;;;;;;4983618;28;20199;-82
2023/09/19 04:46:17;;;;;;;11.17;2.60;;;14.40;99.90;;;;;;4982050;28;20174;-82
2023/09/19 04:48:43;;;;;;;11.27;2.30;;;14.50;99.90;;;;;;4982900;28;20233;-81
2023/09/19 04:51:10;;;;;;;13.73;2.80;;;14.40;99.90;;;;;;4983869;28;20292;-82
2023/09/19 04:53:36;;;;;;;11.23;2.43;;;14.60;99.90;;;;;;4983238;28;20186;-82
2023/09/19 04:56:03;;;;;;;14.77;2.73;;;14.50;99.90;;;;;;4985096;28;20178;-82
2023/09/19 04:58:29;;;;;;;9.00;2.67;;;14.40;99.90;;;;;;4983178;28;20196;-82
2023/09/19 05:00:54;;;;;;;14.53;2.50;;;14.40;99.90;;;;;;4984983;28;20272;-82
2023/09/19 05:03:20;;;;;;;12.07;2.73;;;14.40;99.90;;;;;;4983023;28;20202;-81
2023/09/19 05:05:46;;;;;;;10.33;2.20;;;14.40;99.90;;;;;;4983734;28;20213;-82
2023/09/19 05:08:14;;;;;;;15.00;2.77;;;14.50;99.90;;;;;;4983532;28;20189;-82
2023/09/19 05:10:40;;;;;;;12.93;2.60;;;14.40;99.90;;;;;;4982093;28;20194;-82
2023/09/19 05:13:07;;;;;;;8.10;2.30;;;14.40;99.90;;;;;;4985153;28;20266;-81
2023/09/19 05:15:33;;;;;;;13.77;2.40;;;14.40;99.90;;;;;;4981955;28;20255;-82
2023/09/19 05:17:59;;;;;;;13.47;2.50;;;14.40;99.90;;;;;;4980128;28;20204;-82
2023/09/19 05:20:29;;;;;;;14.03;2.90;;;14.40;99.90;;;;;;4981076;28;20654;-82
2023/09/19 05:23:13;;;;;;;9.13;2.80;;;14.40;99.90;;;;;;4979852;28;20205;-82
2023/09/19 05:25:40;;;;;;;12.13;2.63;;;14.40;99.90;;;;;;4984738;28;20159;-82
2023/09/19 05:28:07;;;;;;;12.07;2.50;;;14.40;99.90;;;;;;4986807;28;20189;-81
2023/09/19 05:30:33;;;;;;;8.83;2.37;;;14.40;99.90;;;;;;4981885;28;20218;-82
2023/09/19 05:32:59;;;;;;;14.07;3.00;;;14.40;99.90;;;;;;4980962;28;20198;-81
2023/09/19 05:35:25;;;;;;;15.80;3.00;;;14.40;99.90;;;;;;4981035;28;20268;-81
2023/09/19 05:37:51;;;;;;;14.87;3.20;;;14.40;99.90;;;;;;4977445;28;20202;-81
2023/09/19 05:40:19;;;;;;;10.33;2.90;;;14.40;99.90;;;;;;4978734;28;20175;-81
2023/09/19 05:42:46;;;;;;;12.77;2.60;;;14.50;99.90;;;;;;4978537;28;20202;-82
2023/09/19 05:45:13;;;;;;;15.57;3.00;;;14.50;99.90;;;;;;4979032;28;20185;-81
2023/09/19 05:47:43;;;;;;;10.83;2.53;;;14.50;99.90;;;;;;4980363;28;20170;-81
2023/09/19 05:50:09;;;;;;;11.30;2.53;;;14.50;99.90;;;;;;4977611;28;20170;-81
2023/09/19 05:52:37;;;;;;;8.53;2.50;;;14.60;99.90;;;;;;4977735;28;20201;-81
2023/09/19 05:55:05;;;;;;;14.17;2.43;;;14.60;99.90;;;;;;4977270;28;20189;-81
2023/09/19 05:57:30;;;;;;;17.00;2.53;;;14.60;99.90;;;;;;4978268;28;20178;-82
2023/09/19 05:59:56;;;;;;;12.40;2.67;;;14.60;99.90;;;;;;4977510;28;20265;-81
2023/09/19 06:02:21;;;;;;;11.40;2.50;;;14.70;99.90;;;;;;4977946;28;20229;-82
2023/09/19 06:04:47;;;;;;;18.57;3.00;;;14.70;99.90;;;;;;4976684;28;20242;-82
2023/09/19 06:07:13;;;;;;;12.47;2.87;;;14.70;99.90;;;;;;4978559;28;20269;-82
2023/09/19 06:09:38;;;;;;;10.77;2.30;;;14.70;99.90;;;;;;4981562;28;20170;-82
2023/09/19 06:12:04;;;;;;;11.47;3.00;;;14.80;99.90;;;;;;4983584;28;20205;-81
2023/09/19 06:14:30;;;;;;;10.10;2.70;;;14.80;99.90;;;;;;4989416;28;20302;-81
2023/09/19 06:16:56;;;;;;;11.97;2.67;;;14.80;99.90;;;;;;4980837;28;20174;-82
2023/09/19 06:19:22;;;;;;;11.20;2.50;;;14.80;99.90;;;;;;4977245;28;20322;-81
2023/09/19 06:21:48;;;;;;;10.63;2.60;;;14.90;99.90;;;;;;4976666;28;20189;-79
2023/09/19 06:24:14;;;;;;;12.37;2.70;;;14.90;99.90;;;;;;4975578;28;20203;-79
2023/09/19 06:26:40;;;;;;;12.10;2.47;;;14.90;99.90;;;;;;4976109;28;20624;-79
2023/09/19 06:29:08;;;;;;;10.93;2.37;;;14.90;99.90;;;;;;4974171;28;20186;-79
2023/09/19 06:31:34;;;;;;;9.97;2.47;;;14.80;99.90;;;;;;4975468;28;20227;-79
2023/09/19 06:33:59;;;;;;;9.77;2.50;;;14.90;99.90;;;;;;4974049;28;20194;-79
2023/09/19 06:36:25;;;;;;;11.83;2.63;;;14.90;99.90;;;;;;4975488;28;20186;-80
2023/09/19 06:38:53;;;;;;;10.20;2.83;;;15.00;99.90;;;;;;4974513;28;20201;-79
2023/09/19 06:41:19;;;;;;;14.30;2.80;;;15.10;99.90;;;;;;4975746;28;20198;-79
2023/09/19 06:43:45;;;;;;;13.47;3.03;;;15.00;99.90;;;;;;4974855;28;20593;-79
2023/09/19 06:46:12;;;;;;;10.13;2.90;;;15.00;99.90;;;;;;4974385;28;20198;-79
2023/09/19 06:48:38;;;;;;;13.03;3.40;;;15.00;99.90;;;;;;4973693;28;20174;-79
2023/09/19 06:51:05;;;;;;;13.87;2.73;;;15.00;99.90;;;;;;4974983;28;20296;-80
2023/09/19 06:53:35;;;;;;;17.30;3.37;;;15.00;99.90;;;;;;4975386;28;20201;-79
2023/09/19 06:56:01;;;;;;;11.80;2.30;;;15.00;99.90;;;;;;4974563;28;20654;-80
2023/09/19 06:58:27;;;;;;;10.80;3.00;;;15.10;99.90;;;;;;4973904;28;20181;-80
2023/09/19 07:00:52;;;;;;;10.30;2.50;;;15.10;99.90;;;;;;4973726;28;20621;-80
2023/09/19 07:03:21;;;;;;;10.40;2.97;;;15.10;99.90;;;;;;4975060;28;20202;-79
2023/09/19 07:05:48;;;;;;;8.73;2.97;;;15.10;99.90;;;;;;4975072;28;20246;-79
2023/09/19 07:08:14;;;;;;;12.03;2.73;;;15.10;99.90;;;;;;4973479;28;20178;-79
2023/09/19 07:10:40;;;;;;;11.13;2.57;;;15.20;99.90;;;;;;4974332;28;20193;-79
2023/09/19 07:13:10;;;;;;;12.27;2.70;;;15.20;99.90;;;;;;4973698;28;20197;-79
2023/09/19 07:15:39;;;;;;;12.27;2.50;;;15.20;99.90;;;;;;4976414;28;20213;-80
2023/09/19 07:18:06;;;;;;;10.57;2.63;;;15.30;99.90;;;;;;4979478;28;20202;-79
2023/09/19 07:20:32;;;;;;;9.80;2.67;;;15.30;99.90;;;;;;4979165;28;20185;-79
2023/09/19 07:23:01;;;;;;;18.67;3.00;;;15.30;99.90;;;;;;4977560;28;20210;-79
2023/09/19 07:25:30;;;;;;;17.33;3.20;;;15.30;99.90;;;;;;4978797;28;20175;-80
2023/09/19 07:27:59;;;;;;;12.93;2.53;;;15.30;99.90;;;;;;4979770;28;20177;-80
2023/09/19 07:30:26;;;;;;;12.47;2.40;;;15.40;99.90;;;;;;4979976;28;20175;-79
2023/09/19 07:32:52;;;;;;;12.10;3.00;;;15.40;99.90;;;;;;4979367;28;20194;-79
2023/09/19 07:35:19;;;;;;;10.73;2.57;;;15.50;99.90;;;;;;4979332;28;20221;-80
2023/09/19 07:37:49;;;;;;;14.73;2.60;;;15.60;99.90;;;;;;4978432;28;20178;-79
2023/09/19 07:40:15;;;;;;;10.33;2.63;;;15.50;99.90;;;;;;4977334;28;20249;-79
2023/09/19 07:42:40;;;;;;;8.70;2.67;;;15.50;99.90;;;;;;4977032;28;20709;-79
2023/09/19 07:45:14;;;;;;;16.30;3.47;;;15.60;99.90;;;;;;4978385;28;20181;-80
2023/09/19 07:47:49;;;;;;;12.87;2.03;;;15.60;99.90;;;;;;4978255;28;20154;-79
2023/09/19 07:50:18;;;;;;;14.43;2.70;;;15.60;99.90;;;;;;4978342;28;20165;-79
2023/09/19 07:52:44;;;;;;;10.40;2.50;;;15.70;99.90;;;;;;4977959;28;20187;-79
2023/09/19 07:55:17;;;;;;;12.67;2.70;;;15.70;99.90;;;;;;4977954;28;20688;-80
2023/09/19 07:57:43;;;;;;;12.53;2.30;;;15.70;99.90;;;;;;4976807;28;20177;-79
2023/09/19 08:00:10;;;;;;;13.73;2.80;;;15.70;99.90;;;;;;4976615;28;20182;-80
2023/09/19 08:02:38;;;;;;;11.07;2.23;;;15.80;99.90;;;;;;4977942;28;20689;-80
2023/09/19 08:08:40;;;;;;;9.27;2.80;;;15.80;99.90;;;;;;4977971;28;20206;-80
2023/09/19 08:11:21;;;;;;;8.43;2.47;;;15.80;99.90;;;;;;4976216;28;20700;-80
2023/09/19 08:13:48;;;;;;;12.30;2.60;;;15.80;99.90;;;;;;4976712;28;20177;-79
2023/09/19 08:16:14;;;;;;;11.83;2.37;;;15.90;99.90;;;;;;4976786;28;20575;-80
2023/09/19 08:18:41;;;;;;;11.37;2.53;;;15.90;99.90;;;;;;4978346;28;20673;-79
2023/09/19 08:21:10;;;;;;;12.47;2.50;;;16.00;99.90;;;;;;4978357;28;20194;-79
2023/09/19 08:23:38;;;;;;;15.03;2.80;;;16.00;99.90;;;;;;4977777;28;20202;-79
2023/09/19 08:26:07;;;;;;;10.03;2.57;;;16.10;99.90;;;;;;4982585;28;20194;-79
2023/09/19 08:28:33;;;;;;;14.90;2.60;;;16.10;99.90;;;;;;4978304;28;20523;-79
2023/09/19 08:31:06;;;;;;;10.43;2.70;;;16.10;99.90;;;;;;4979109;28;20170;-79
2023/09/19 08:33:37;;;;;;;14.00;3.03;;;16.20;99.90;;;;;;4977721;28;20181;-80
2023/09/19 08:36:07;;;;;;;10.93;2.30;;;16.10;99.90;;;;;;4976977;28;20277;-79
2023/09/19 08:38:34;;;;;;;16.77;2.47;;;16.30;99.90;;;;;;4977593;28;20186;-80
2023/09/19 08:41:04;;;;;;;11.50;2.67;;;16.30;99.90;;;;;;4976075;28;20182;-80
2023/09/19 08:43:30;;;;;;;11.17;2.53;;;16.50;99.90;;;;;;4977212;28;20198;-80
2023/09/19 08:49:33;;;;;;;15.13;2.90;;;16.50;99.90;;;;;;4962245;28;20673;-80
2023/09/19 08:52:16;;;;;;;16.37;2.90;;;16.40;99.90;;;;;;4975893;28;20194;-79
2023/09/19 08:54:43;;;;;;;18.53;2.73;;;16.50;99.90;;;;;;4977421;28;20170;-79
2023/09/19 08:57:11;;;;;;;11.60;2.37;;;16.70;99.90;;;;;;4977067;28;20178;-81
2023/09/19 08:59:41;;;;;;;12.20;2.97;;;16.70;99.90;;;;;;4974826;28;20569;-79
2023/09/19 09:02:15;;;;;;;10.87;2.30;;;16.60;99.90;;;;;;4975458;28;20194;-79
2023/09/19 09:04:41;;;;;;;14.83;3.10;;;16.80;99.90;;;;;;4977006;28;20159;-79
2023/09/19 09:07:14;;;;;;;14.13;2.47;;;16.80;99.90;;;;;;4977019;28;20186;-79
2023/09/19 09:09:43;;;;;;;8.80;2.07;;;16.90;99.90;;;;;;4971844;28;20187;-79
2023/09/19 09:12:13;;;;;;;8.50;2.13;;;16.90;99.90;;;;;;4957638;28;20235;-80
2023/09/19 09:14:48;;;;;;;11.90;2.80;;;17.00;99.90;;;;;;4956446;29;20174;-80
2023/09/19 09:17:15;;;;;;;12.10;2.83;;;17.00;99.90;;;;;;4972151;28;20163;-81
2023/09/19 09:19:41;;;;;;;9.37;2.40;;;17.10;99.90;;;;;;4965327;28;20178;-80
2023/09/19 09:22:11;;;;;;;9.90;2.27;;;17.20;99.90;;;;;;4975020;28;20667;-79
2023/09/19 09:24:39;;;;;;;12.50;2.50;;;17.20;99.90;;;;;;4976697;28;20206;-80
2023/09/19 09:27:08;;;;;;;14.80;3.10;;;17.10;99.90;;;;;;4976265;28;20631;-79
2023/09/19 09:29:50;;;;;;;12.57;3.30;;;17.30;82.90;;;;;;4976042;28;20531;-80
2023/09/19 09:32:36;;;;;;;12.27;2.40;;;17.30;17.20;;;;;;4975297;28;20193;-80
2023/09/19 09:35:09;;;;;;;9.27;2.90;;;17.40;99.90;;;;;;4975680;28;20653;-79
2023/09/19 09:37:38;;;;;;;9.57;2.20;;;17.40;1.00;;;;;;4975557;28;20155;-80
2023/09/19 09:42:45;;;;;;;10.67;2.63;;;17.40;99.90;;;;;;4976979;28;20301;-79
2023/09/19 09:48:03;;;;;;;9.93;2.37;;;17.50;99.90;;;;;;4976210;28;20500;-79
2023/09/19 09:50:51;;;;;;;6.67;2.40;;;17.30;99.90;;;;;;4975502;28;20198;-79
2023/09/19 09:53:33;;;;;;;11.27;2.30;;;17.30;99.90;;;;;;4976763;28;20567;-79
2023/09/19 09:56:00;;;;;;;15.53;2.90;;;17.40;1.00;;;;;;4975171;28;20535;-80
2023/09/19 09:58:29;;;;;;;10.67;2.83;;;17.50;99.90;;;;;;4975833;28;20282;-81
2023/09/19 10:00:57;;;;;;;11.67;2.27;;;17.30;1.00;;;;;;4975619;28;20193;-80
2023/09/19 10:03:32;;;;;;;9.60;2.10;;;17.40;99.90;;;;;;4974808;28;20293;-79
2023/09/19 10:05:58;;;;;;;12.93;2.70;;;17.60;1.00;;;;;;4975548;28;20216;-79
2023/09/19 10:08:26;;;;;;;8.77;2.70;;;17.70;99.90;;;;;;4973462;28;20179;-80
2023/09/19 10:13:21;;;;;;;12.40;2.93;;;17.70;99.90;;;;;;4976876;28;20644;-80
2023/09/19 10:15:52;;;;;;;9.43;2.37;;;18.00;99.90;;;;;;4973095;28;20194;-79
2023/09/19 10:18:21;;;;;;;14.70;2.70;;;17.90;1.00;;;;;;4972518;28;20186;-79
2023/09/19 10:20:49;;;;;;;7.97;2.40;;;17.90;99.90;;;;;;4957056;28;20189;-80
2023/09/19 10:23:22;;;;;;;10.37;2.60;;;17.90;99.90;;;;;;4972624;28;20270;-79
2023/09/19 10:25:48;;;;;;;9.83;2.50;;;17.90;36.10;;;;;;4975200;28;20186;-79
2023/09/19 10:28:15;;;;;;;9.17;2.60;;;18.00;1.00;;;;;;4976002;28;20182;-79
2023/09/19 10:30:47;;;;;;;6.97;2.10;;;17.90;99.90;;;;;;4977059;28;20174;-79
2023/09/19 10:33:14;;;;;;;11.67;2.47;;;18.00;1.00;;;;;;4980527;28;20595;-79
2023/09/19 10:35:43;;;;;;;8.33;2.43;;;18.10;1.00;;;;;;4979180;28;20367;-79
2023/09/19 10:38:14;;;;;;;6.87;2.00;;;18.00;44.70;;;;;;4974505;28;20197;-80
2023/09/19 10:40:43;;;;;;;9.80;2.30;;;18.10;1.00;;;;;;4975562;28;20165;-79
2023/09/19 10:43:19;;;;;;;10.13;2.80;;;18.20;1.00;;;;;;4975416;28;20198;-79
2023/09/19 10:45:49;;;;;;;9.30;2.43;;;18.20;99.90;;;;;;4972189;28;20190;-79
2023/09/19 10:48:19;;;;;;;11.80;2.67;;;18.40;99.90;;;;;;4974940;28;20241;-80
2023/09/19 10:50:59;;;;;;;9.43;2.67;;;18.30;99.90;;;;;;4973569;28;20281;-79
2023/09/19 10:53:28;;;;;;;10.10;2.53;;;18.40;1.00;;;;;;4974572;28;20181;-79
2023/09/19 10:56:00;;;;;;;7.43;2.17;;;18.40;1.00;;;;;;4973915;28;20182;-80
2023/09/19 10:58:34;;;;;;;7.47;2.17;;;18.40;1.00;;;;;;4974585;28;20205;-79
2023/09/19 11:01:07;;;;;;;15.93;2.43;;;18.40;1.00;;;;;;4976913;28;20524;-79
2023/09/19 11:03:33;;;;;;;8.97;2.50;;;18.40;54.80;;;;;;4977776;28;20557;-79
2023/09/19 11:06:00;;;;;;;8.37;2.50;;;18.50;1.00;;;;;;4976473;28;20273;-79
2023/09/19 11:08:27;;;;;;;9.90;2.60;;;18.50;1.00;;;;;;4973288;28;20228;-79
2023/09/19 11:10:52;;;;;;;13.23;2.40;;;18.60;1.00;;;;;;4976270;28;20612;-79
2023/09/19 11:13:34;;;;;;;12.57;2.77;;;18.60;1.00;;;;;;4974065;28;20209;-79
2023/09/19 11:15:59;;;;;;;12.37;2.50;;;18.60;1.00;;;;;;4975867;28;20189;-80
2023/09/19 11:18:40;;;;;;;7.73;2.10;;;18.70;99.90;;;;;;4973856;28;20190;-79
2023/09/19 11:21:31;;;;;;;7.53;2.60;;;18.70;99.90;;;;;;4973014;28;20198;-80
2023/09/19 11:24:21;;;;;;;8.87;2.23;;;18.70;1.00;;;;;;4954911;28;20585;-80
2023/09/19 11:26:48;;;;;;;11.03;2.33;;;18.60;1.00;;;;;;4957686;29;20159;-79
2023/09/19 11:29:31;;;;;;;10.77;3.07;;;18.70;1.00;;;;;;4959036;29;20242;-79
2023/09/19 11:32:00;;;;;;;9.97;3.03;;;18.90;1.00;;;;;;4964298;28;20196;-79
2023/09/19 11:34:46;;;;;;;7.93;2.20;;;18.70;1.00;;;;;;4978151;28;20182;-80
2023/09/19 11:37:14;;;;;;;9.07;2.47;;;18.80;99.90;;;;;;4974645;28;20171;-79
2023/09/19 11:40:09;;;;;;;9.03;2.27;;;18.80;74.70;;;;;;4973573;28;20190;-79
2023/09/19 11:42:45;;;;;;;7.53;2.10;;;18.80;99.90;;;;;;4974196;28;20208;-79
2023/09/19 11:45:57;;;;;;;8.17;2.27;;;19.00;55.30;;;;;;4976011;28;20179;-79
2023/09/19 11:48:27;;;;;;;7.53;2.50;;;19.10;1.00;;;;;;4916614;29;20185;-79
2023/09/19 11:50:53;;;;;;;10.37;2.50;;;19.10;99.90;;;;;;4900029;29;20189;-80
2023/09/19 11:53:19;;;;;;;11.20;2.40;;;19.10;99.90;;;;;;4938853;28;20571;-79
2023/09/19 11:59:28;;;;;;;8.13;1.90;;;19.30;99.90;;;;;;4968642;28;20193;-81
2023/09/19 12:01:59;;;;;;;7.70;1.97;;;19.30;1.00;;;;;;4974495;28;20632;-79
2023/09/19 12:04:37;;;;;;;12.03;2.33;;;19.40;1.00;;;;;;4979486;28;20194;-79
2023/09/19 12:07:10;;;;;;;8.50;1.97;;;19.30;1.00;;;;;;4977279;28;20182;-79
2023/09/19 12:09:39;;;;;;;6.63;1.93;;;19.40;99.90;;;;;;4978580;28;20257;-79
2023/09/19 12:12:05;;;;;;;10.30;2.43;;;19.50;99.90;;;;;;4976894;28;20273;-79
2023/09/19 12:14:31;;;;;;;7.27;2.20;;;19.60;1.00;;;;;;4979680;28;20186;-79
2023/09/19 12:17:00;;;;;;;9.13;2.33;;;19.60;99.90;;;;;;4977173;28;20200;-79
2023/09/19 12:19:25;;;;;;;6.00;2.73;;;19.70;1.00;;;;;;4979204;28;20178;-79
2023/09/19 12:22:04;;;;;;;8.57;2.13;;;19.70;99.90;;;;;;4978710;28;20213;-80
2023/09/19 12:24:29;;;;;;;8.50;2.00;;;19.80;1.00;;;;;;4978477;28;20209;-79
2023/09/19 12:27:01;;;;;;;10.67;2.53;;;19.70;1.00;;;;;;4982518;28;20166;-79
2023/09/19 12:29:27;;;;;;;7.87;2.00;;;19.70;79.30;;;;;;4981055;28;20158;-79
2023/09/19 12:31:57;;;;;;;7.80;2.30;;;19.80;1.00;;;;;;4981977;28;20308;-79
2023/09/19 12:34:27;;;;;;;10.33;2.30;;;19.90;99.90;;;;;;4980751;28;20183;-79
2023/09/19 12:37:20;;;;;;;6.70;2.00;;;19.90;1.00;;;;;;4984950;28;20189;-80
2023/09/19 12:39:51;;;;;;;9.27;2.13;;;19.90;1.00;;;;;;4987917;28;20186;-80
2023/09/19 12:42:22;;;;;;;6.13;2.63;;;19.90;99.90;;;;;;4981068;28;20209;-79
2023/09/19 12:44:59;;;;;;;5.87;1.80;;;19.80;1.00;;;;;;4981613;28;20182;-80
2023/09/19 12:47:26;;;;;;;6.63;2.10;;;19.80;99.90;;;;;;4981558;28;20174;-80
2023/09/19 12:50:13;;;;;;;5.77;1.70;;;19.80;1.00;;;;;;4981085;28;20233;-79
2023/09/19 12:52:47;;;;;;;8.23;2.27;;;19.90;1.00;;;;;;4978011;28;20249;-79
2023/09/19 12:55:32;;;;;;;9.47;2.33;;;19.90;99.90;;;;;;4979920;28;20220;-79
2023/09/19 12:58:15;;;;;;;8.83;2.37;;;20.10;1.00;;;;;;4977585;28;20185;-79
2023/09/19 13:00:45;;;;;;;6.60;2.13;;;20.10;1.00;;;;;;4980634;28;20264;-79
2023/09/19 13:03:15;;;;;;;7.37;1.77;;;20.20;1.00;;;;;;4977837;28;20206;-79
2023/09/19 13:05:56;;;;;;;7.37;1.93;;;20.10;1.00;;;;;;4980527;28;20201;-79
2023/09/19 13:08:29;;;;;;;9.77;2.03;;;20.20;1.00;;;;;;4978221;28;20166;-78
2023/09/19 13:11:14;;;;;;;8.27;1.73;;;20.00;1.00;;;;;;4978018;28;20642;-79
2023/09/19 13:13:46;;;;;;;5.67;1.70;;;20.00;1.00;;;;;;4978149;28;20154;-79